sensor_id;sensor_type;location;lat;lon;timestamp;temperature;humidity
4813;DHT22;2420;51.202;8.698;2023-10-08T00:01:15;16.80;1.00
4813;DHT22;2420;51.202;8.698;2023-10-08T00:03:45;16.80;1.00
4813;DHT22;2420;51.202;8.698;2023-10-08T00:06:15;16.80;1.00
4813;DHT22;2420;51.202;8.698;2023-10-08T00:08:40;16.80;1.00
4813;DHT22;2420;51.202;8.698;2023-10-08T00:11:06;16.80;1.00
4813;DHT22;2420;51.202;8.698;2023-10-08T00:13:33;16.80;1.00
4813;DHT22;2420;51.202;8.698;2023-10-08T00:16:09;16.80;1.00
4813;DHT22;2420;51.202;8.698;2023-10-08T00:18:36;16.70;1.00
4813;DHT22;2420;51.202;8.698;2023-10-08T00:21:06;16.70;1.00
4813;DHT22;2420;51.202;8.698;2023-10-08T00:23:38;16.70;1.00
4813;DHT22;2420;51.202;8.698;2023-10-08T00:26:07;16.70;1.00
4813;DHT22;2420;51.202;8.698;2023-10-08T00:28:33;16.60;1.00
4813;DHT22;2420;51.202;8.698;2023-10-08T00:31:01;16.60;1.00
4813;DHT22;2420;51.202;8.698;2023-10-08T00:33:43;16.70;1.00
4813;DHT22;2420;51.202;8.698;2023-10-08T00:36:10;16.60;1.00
4813;DHT22;2420;51.202;8.698;2023-10-08T00:38:46;16.70;1.00
4813;DHT22;2420;51.202;8.698;2023-10-08T00:41:24;16.60;1.00
4813;DHT22;2420;51.202;8.698;2023-10-08T00:43:54;16.70;1.00
4813;DHT22;2420;51.202;8.698;2023-10-08T00:46:22;16.60;1.00
4813;DHT22;2420;51.202;8.698;2023-10-08T00:48:53;16.50;1.00
4813;DHT22;2420;51.202;8.698;2023-10-08T00:51:23;16.60;1.00
4813;DHT22;2420;51.202;8.698;2023-10-08T00:56:28;16.50;1.00
4813;DHT22;2420;51.202;8.698;2023-10-08T00:59:11;16.60;1.00
4813;DHT22;2420;51.202;8.698;2023-10-08T01:01:42;16.50;1.00
4813;DHT22;2420;51.202;8.698;2023-10-08T01:04:18;16.50;1.00
4813;DHT22;2420;51.202;8.698;2023-10-08T01:06:52;16.60;1.00
4813;DHT22;2420;51.202;8.698;2023-10-08T01:09:25;16.60;1.00
4813;DHT22;2420;51.202;8.698;2023-10-08T01:12:13;16.50;1.00
4813;DHT22;2420;51.202;8.698;2023-10-08T01:14:45;16.50;1.00
4813;DHT22;2420;51.202;8.698;2023-10-08T01:17:14;16.50;1.00
4813;DHT22;2420;51.202;8.698;2023-10-08T01:19:47;16.50;1.00
4813;DHT22;2420;51.202;8.698;2023-10-08T01:22:16;16.50;1.00
4813;DHT22;2420;51.202;8.698;2023-10-08T01:24:48;16.50;1.00
4813;DHT22;2420;51.202;8.698;2023-10-08T01:27:15;16.50;1.00
4813;DHT22;2420;51.202;8.698;2023-10-08T01:29:47;16.40;1.00
4813;DHT22;2420;51.202;8.698;2023-10-08T01:32:13;16.50;1.00
4813;DHT22;2420;51.202;8.698;2023-10-08T01:34:42;16.50;1.00
4813;DHT22;2420;51.202;8.698;2023-10-08T01:37:14;16.60;1.00
4813;DHT22;2420;51.202;8.698;2023-10-08T01:39:42;16.60;1.00
4813;DHT22;2420;51.202;8.698;2023-10-08T01:42:09;16.50;1.00
4813;DHT22;2420;51.202;8.698;2023-10-08T01:44:44;16.50;1.00
4813;DHT22;2420;51.202;8.698;2023-10-08T01:47:11;16.50;1.00
4813;DHT22;2420;51.202;8.698;2023-10-08T01:49:37;16.50;1.00
4813;DHT22;2420;51.202;8.698;2023-10-08T01:52:05;16.50;1.00
4813;DHT22;2420;51.202;8.698;2023-10-08T01:54:33;16.50;1.00
4813;DHT22;2420;51.202;8.698;2023-10-08T01:57:01;16.40;1.00
4813;DHT22;2420;51.202;8.698;2023-10-08T01:59:26;16.40;1.00
4813;DHT22;2420;51.202;8.698;2023-10-08T02:01:52;16.40;1.00
4813;DHT22;2420;51.202;8.698;2023-10-08T02:04:21;16.50;1.00
4813;DHT22;2420;51.202;8.698;2023-10-08T02:06:47;16.50;1.00
4813;DHT22;2420;51.202;8.698;2023-10-08T02:09:12;16.40;1.00
4813;DHT22;2420;51.202;8.698;2023-10-08T02:11:47;16.40;1.00
4813;DHT22;2420;51.202;8.698;2023-10-08T02:14:19;16.40;1.00
4813;DHT22;2420;51.202;8.698;2023-10-08T02:16:46;16.40;1.00
4813;DHT22;2420;51.202;8.698;2023-10-08T02:19:12;16.40;1.00
4813;DHT22;2420;51.202;8.698;2023-10-08T02:21:38;16.40;1.00
4813;DHT22;2420;51.202;8.698;2023-10-08T02:24:07;16.40;1.00
4813;DHT22;2420;51.202;8.698;2023-10-08T02:26:34;16.40;1.00
4813;DHT22;2420;51.202;8.698;2023-10-08T02:29:00;16.40;1.00
4813;DHT22;2420;51.202;8.698;2023-10-08T02:31:26;16.30;1.00
4813;DHT22;2420;51.202;8.698;2023-10-08T02:33:53;16.30;1.00
4813;DHT22;2420;51.202;8.698;2023-10-08T02:36:19;16.40;1.00
4813;DHT22;2420;51.202;8.698;2023-10-08T02:38:45;16.40;1.00
4813;DHT22;2420;51.202;8.698;2023-10-08T02:41:16;16.30;1.00
4813;DHT22;2420;51.202;8.698;2023-10-08T02:43:45;16.30;1.00
4813;DHT22;2420;51.202;8.698;2023-10-08T02:46:11;16.30;1.00
4813;DHT22;2420;51.202;8.698;2023-10-08T02:48:41;16.30;1.00
4813;DHT22;2420;51.202;8.698;2023-10-08T02:51:06;16.30;1.00
4813;DHT22;2420;51.202;8.698;2023-10-08T02:53:39;16.30;1.00
4813;DHT22;2420;51.202;8.698;2023-10-08T02:56:07;16.20;1.00
4813;DHT22;2420;51.202;8.698;2023-10-08T02:58:42;16.20;1.00
4813;DHT22;2420;51.202;8.698;2023-10-08T03:01:09;16.20;1.00
4813;DHT22;2420;51.202;8.698;2023-10-08T03:03:39;16.30;1.00
4813;DHT22;2420;51.202;8.698;2023-10-08T03:06:06;16.30;1.00
4813;DHT22;2420;51.202;8.698;2023-10-08T03:08:37;16.20;1.00
4813;DHT22;2420;51.202;8.698;2023-10-08T03:11:05;16.20;1.00
4813;DHT22;2420;51.202;8.698;2023-10-08T03:13:32;16.20;1.00
4813;DHT22;2420;51.202;8.698;2023-10-08T03:15:57;16.30;1.00
4813;DHT22;2420;51.202;8.698;2023-10-08T03:18:33;16.30;1.00
4813;DHT22;2420;51.202;8.698;2023-10-08T03:21:03;16.30;1.00
4813;DHT22;2420;51.202;8.698;2023-10-08T03:23:30;16.20;1.00
4813;DHT22;2420;51.202;8.698;2023-10-08T03:26:01;16.20;1.00
4813;DHT22;2420;51.202;8.698;2023-10-08T03:28:35;16.20;1.00
4813;DHT22;2420;51.202;8.698;2023-10-08T03:31:04;16.20;1.00
4813;DHT22;2420;51.202;8.698;2023-10-08T03:33:35;16.20;1.00
4813;DHT22;2420;51.202;8.698;2023-10-08T03:36:06;16.20;1.00
4813;DHT22;2420;51.202;8.698;2023-10-08T03:38:55;16.20;1.00
4813;DHT22;2420;51.202;8.698;2023-10-08T03:41:23;16.20;1.00
4813;DHT22;2420;51.202;8.698;2023-10-08T03:43:58;16.20;1.00
4813;DHT22;2420;51.202;8.698;2023-10-08T03:46:30;16.20;1.00
4813;DHT22;2420;51.202;8.698;2023-10-08T03:48:56;16.20;1.00
4813;DHT22;2420;51.202;8.698;2023-10-08T03:51:23;16.20;1.00
4813;DHT22;2420;51.202;8.698;2023-10-08T03:53:52;16.20;1.00
4813;DHT22;2420;51.202;8.698;2023-10-08T03:56:28;16.10;1.00
4813;DHT22;2420;51.202;8.698;2023-10-08T03:58:59;16.00;1.00
4813;DHT22;2420;51.202;8.698;2023-10-08T04:01:26;16.10;1.00
4813;DHT22;2420;51.202;8.698;2023-10-08T04:03:56;16.00;1.00
4813;DHT22;2420;51.202;8.698;2023-10-08T04:06:28;16.00;1.00
4813;DHT22;2420;51.202;8.698;2023-10-08T04:08:56;16.10;1.00
4813;DHT22;2420;51.202;8.698;2023-10-08T04:11:34;16.00;1.00
4813;DHT22;2420;51.202;8.698;2023-10-08T04:14:12;16.10;1.00
4813;DHT22;2420;51.202;8.698;2023-10-08T04:16:38;16.00;1.00
4813;DHT22;2420;51.202;8.698;2023-10-08T04:19:04;16.00;1.00
4813;DHT22;2420;51.202;8.698;2023-10-08T04:21:30;16.10;1.00
4813;DHT22;2420;51.202;8.698;2023-10-08T04:23:59;16.10;1.00
4813;DHT22;2420;51.202;8.698;2023-10-08T04:26:28;16.00;1.00
4813;DHT22;2420;51.202;8.698;2023-10-08T04:28:55;16.00;1.00
4813;DHT22;2420;51.202;8.698;2023-10-08T04:31:23;16.00;1.00
4813;DHT22;2420;51.202;8.698;2023-10-08T04:34:07;16.00;1.00
4813;DHT22;2420;51.202;8.698;2023-10-08T04:36:42;16.00;1.00
4813;DHT22;2420;51.202;8.698;2023-10-08T04:39:10;16.10;1.00
4813;DHT22;2420;51.202;8.698;2023-10-08T04:41:40;16.00;1.00
4813;DHT22;2420;51.202;8.698;2023-10-08T04:44:11;16.10;1.00
4813;DHT22;2420;51.202;8.698;2023-10-08T04:46:44;16.10;1.00
4813;DHT22;2420;51.202;8.698;2023-10-08T04:49:16;16.20;1.00
4813;DHT22;2420;51.202;8.698;2023-10-08T04:52:05;16.20;1.00
4813;DHT22;2420;51.202;8.698;2023-10-08T04:54:39;16.10;1.00
4813;DHT22;2420;51.202;8.698;2023-10-08T04:57:07;16.10;1.00
4813;DHT22;2420;51.202;8.698;2023-10-08T04:59:33;16.10;1.00
4813;DHT22;2420;51.202;8.698;2023-10-08T05:02:03;16.10;1.00
4813;DHT22;2420;51.202;8.698;2023-10-08T05:04:38;16.00;1.00
4813;DHT22;2420;51.202;8.698;2023-10-08T05:07:12;15.90;1.00
4813;DHT22;2420;51.202;8.698;2023-10-08T05:09:52;15.90;1.00
4813;DHT22;2420;51.202;8.698;2023-10-08T05:12:36;15.90;1.00
4813;DHT22;2420;51.202;8.698;2023-10-08T05:15:16;15.90;1.00
4813;DHT22;2420;51.202;8.698;2023-10-08T05:17:46;15.90;1.00
4813;DHT22;2420;51.202;8.698;2023-10-08T05:20:15;15.90;1.00
4813;DHT22;2420;51.202;8.698;2023-10-08T05:22:59;15.90;1.00
4813;DHT22;2420;51.202;8.698;2023-10-08T05:25:45;15.90;1.00
4813;DHT22;2420;51.202;8.698;2023-10-08T05:28:27;15.90;1.00
4813;DHT22;2420;51.202;8.698;2023-10-08T05:30:55;15.90;1.00
4813;DHT22;2420;51.202;8.698;2023-10-08T05:33:37;15.90;1.00
4813;DHT22;2420;51.202;8.698;2023-10-08T05:36:21;15.90;1.00
4813;DHT22;2420;51.202;8.698;2023-10-08T05:39:16;15.90;1.00
4813;DHT22;2420;51.202;8.698;2023-10-08T05:42:00;15.80;1.00
4813;DHT22;2420;51.202;8.698;2023-10-08T05:44:43;15.90;1.00
4813;DHT22;2420;51.202;8.698;2023-10-08T05:47:14;15.90;1.00
4813;DHT22;2420;51.202;8.698;2023-10-08T05:50:06;15.80;1.00
4813;DHT22;2420;51.202;8.698;2023-10-08T05:52:41;15.80;1.00
4813;DHT22;2420;51.202;8.698;2023-10-08T05:55:19;15.80;1.00
4813;DHT22;2420;51.202;8.698;2023-10-08T05:57:45;15.80;1.00
4813;DHT22;2420;51.202;8.698;2023-10-08T06:00:18;15.80;1.00
4813;DHT22;2420;51.202;8.698;2023-10-08T06:02:55;15.80;1.00
4813;DHT22;2420;51.202;8.698;2023-10-08T06:05:35;15.80;1.00
4813;DHT22;2420;51.202;8.698;2023-10-08T06:08:09;15.90;1.00
4813;DHT22;2420;51.202;8.698;2023-10-08T06:10:40;15.90;1.00
4813;DHT22;2420;51.202;8.698;2023-10-08T06:13:13;15.80;1.00
4813;DHT22;2420;51.202;8.698;2023-10-08T06:15:52;15.90;1.00
4813;DHT22;2420;51.202;8.698;2023-10-08T06:18:21;15.80;1.00
4813;DHT22;2420;51.202;8.698;2023-10-08T06:21:06;15.80;1.00
4813;DHT22;2420;51.202;8.698;2023-10-08T06:23:39;15.80;1.00
4813;DHT22;2420;51.202;8.698;2023-10-08T06:26:05;15.80;1.00
4813;DHT22;2420;51.202;8.698;2023-10-08T06:28:31;15.80;1.00
4813;DHT22;2420;51.202;8.698;2023-10-08T06:31:01;15.90;1.00
4813;DHT22;2420;51.202;8.698;2023-10-08T06:33:31;15.80;1.00
4813;DHT22;2420;51.202;8.698;2023-10-08T06:36:02;15.80;1.00
4813;DHT22;2420;51.202;8.698;2023-10-08T06:38:38;15.80;1.00
4813;DHT22;2420;51.202;8.698;2023-10-08T06:41:05;15.80;1.00
4813;DHT22;2420;51.202;8.698;2023-10-08T06:43:51;15.80;1.00
4813;DHT22;2420;51.202;8.698;2023-10-08T06:46:29;15.80;1.00
4813;DHT22;2420;51.202;8.698;2023-10-08T06:48:58;15.80;1.00
4813;DHT22;2420;51.202;8.698;2023-10-08T06:51:24;15.80;1.00
4813;DHT22;2420;51.202;8.698;2023-10-08T06:53:51;15.80;1.00
4813;DHT22;2420;51.202;8.698;2023-10-08T06:56:19;15.80;1.00
4813;DHT22;2420;51.202;8.698;2023-10-08T06:58:46;15.90;1.00
4813;DHT22;2420;51.202;8.698;2023-10-08T07:01:17;15.80;1.00
4813;DHT22;2420;51.202;8.698;2023-10-08T07:03:49;15.90;1.00
4813;DHT22;2420;51.202;8.698;2023-10-08T07:06:16;15.90;1.00
4813;DHT22;2420;51.202;8.698;2023-10-08T07:08:43;15.90;1.00
4813;DHT22;2420;51.202;8.698;2023-10-08T07:11:12;15.90;1.00
4813;DHT22;2420;51.202;8.698;2023-10-08T07:13:38;15.90;1.00
4813;DHT22;2420;51.202;8.698;2023-10-08T07:16:05;15.90;1.00
4813;DHT22;2420;51.202;8.698;2023-10-08T07:18:31;15.90;1.00
4813;DHT22;2420;51.202;8.698;2023-10-08T07:20:59;15.90;1.00
4813;DHT22;2420;51.202;8.698;2023-10-08T07:23:29;15.90;1.00
4813;DHT22;2420;51.202;8.698;2023-10-08T07:26:02;15.90;1.00
4813;DHT22;2420;51.202;8.698;2023-10-08T07:28:40;16.00;1.00
4813;DHT22;2420;51.202;8.698;2023-10-08T07:31:17;16.00;1.00
4813;DHT22;2420;51.202;8.698;2023-10-08T07:33:44;15.90;1.00
4813;DHT22;2420;51.202;8.698;2023-10-08T07:36:10;15.50;1.00
4813;DHT22;2420;51.202;8.698;2023-10-08T07:38:40;14.90;1.00
4813;DHT22;2420;51.202;8.698;2023-10-08T07:41:11;14.30;1.00
4813;DHT22;2420;51.202;8.698;2023-10-08T07:43:43;13.90;1.00
4813;DHT22;2420;51.202;8.698;2023-10-08T07:46:09;13.80;1.00
4813;DHT22;2420;51.202;8.698;2023-10-08T07:48:35;13.50;1.00
4813;DHT22;2420;51.202;8.698;2023-10-08T07:51:01;13.40;1.00
4813;DHT22;2420;51.202;8.698;2023-10-08T07:53:28;13.10;1.00
4813;DHT22;2420;51.202;8.698;2023-10-08T07:56:04;12.90;1.00
4813;DHT22;2420;51.202;8.698;2023-10-08T07:58:32;12.80;1.00
4813;DHT22;2420;51.202;8.698;2023-10-08T08:01:06;12.80;1.00
4813;DHT22;2420;51.202;8.698;2023-10-08T08:03:41;12.50;1.00
4813;DHT22;2420;51.202;8.698;2023-10-08T08:06:08;12.50;1.00
4813;DHT22;2420;51.202;8.698;2023-10-08T08:08:35;12.50;1.00
4813;DHT22;2420;51.202;8.698;2023-10-08T08:11:05;12.50;1.00
4813;DHT22;2420;51.202;8.698;2023-10-08T08:13:41;12.50;1.00
4813;DHT22;2420;51.202;8.698;2023-10-08T08:16:13;12.50;1.00
4813;DHT22;2420;51.202;8.698;2023-10-08T08:18:52;12.40;1.00
4813;DHT22;2420;51.202;8.698;2023-10-08T08:21:20;12.40;1.00
4813;DHT22;2420;51.202;8.698;2023-10-08T08:23:49;12.30;1.00
4813;DHT22;2420;51.202;8.698;2023-10-08T08:26:20;12.40;1.00
4813;DHT22;2420;51.202;8.698;2023-10-08T08:29:01;12.40;1.00
4813;DHT22;2420;51.202;8.698;2023-10-08T08:31:30;12.40;1.00
4813;DHT22;2420;51.202;8.698;2023-10-08T08:34:01;12.30;1.00
4813;DHT22;2420;51.202;8.698;2023-10-08T08:36:45;12.40;1.00
4813;DHT22;2420;51.202;8.698;2023-10-08T08:39:17;12.30;1.00
4813;DHT22;2420;51.202;8.698;2023-10-08T08:42:01;12.40;1.00
4813;DHT22;2420;51.202;8.698;2023-10-08T08:44:31;12.50;1.00
4813;DHT22;2420;51.202;8.698;2023-10-08T08:47:00;12.40;1.00
4813;DHT22;2420;51.202;8.698;2023-10-08T08:49:32;12.40;1.00
4813;DHT22;2420;51.202;8.698;2023-10-08T08:52:00;12.40;1.00
4813;DHT22;2420;51.202;8.698;2023-10-08T08:54:27;12.20;1.00
4813;DHT22;2420;51.202;8.698;2023-10-08T08:56:56;12.00;1.00
4813;DHT22;2420;51.202;8.698;2023-10-08T08:59:25;11.70;1.00
4813;DHT22;2420;51.202;8.698;2023-10-08T09:01:52;11.60;1.00
4813;DHT22;2420;51.202;8.698;2023-10-08T09:07:53;11.30;1.00
4813;DHT22;2420;51.202;8.698;2023-10-08T09:10:20;11.30;1.00
4813;DHT22;2420;51.202;8.698;2023-10-08T09:12:51;11.30;1.00
4813;DHT22;2420;51.202;8.698;2023-10-08T09:15:17;11.30;1.00
4813;DHT22;2420;51.202;8.698;2023-10-08T09:17:44;11.10;1.00
4813;DHT22;2420;51.202;8.698;2023-10-08T09:20:09;11.10;1.00
4813;DHT22;2420;51.202;8.698;2023-10-08T09:22:37;11.20;1.00
4813;DHT22;2420;51.202;8.698;2023-10-08T09:25:03;11.20;1.00
4813;DHT22;2420;51.202;8.698;2023-10-08T09:27:33;11.00;1.00
4813;DHT22;2420;51.202;8.698;2023-10-08T09:29:59;11.00;1.00
4813;DHT22;2420;51.202;8.698;2023-10-08T09:32:33;10.80;1.00
4813;DHT22;2420;51.202;8.698;2023-10-08T09:34:59;10.80;1.00
4813;DHT22;2420;51.202;8.698;2023-10-08T09:37:25;10.90;1.00
4813;DHT22;2420;51.202;8.698;2023-10-08T09:39:52;11.10;1.00
4813;DHT22;2420;51.202;8.698;2023-10-08T09:42:19;10.80;1.00
4813;DHT22;2420;51.202;8.698;2023-10-08T09:44:47;10.70;1.00
4813;DHT22;2420;51.202;8.698;2023-10-08T09:47:20;10.80;1.00
4813;DHT22;2420;51.202;8.698;2023-10-08T09:49:56;10.70;1.00
4813;DHT22;2420;51.202;8.698;2023-10-08T09:52:26;10.90;1.00
4813;DHT22;2420;51.202;8.698;2023-10-08T09:55:05;11.10;1.00
4813;DHT22;2420;51.202;8.698;2023-10-08T09:57:35;11.30;1.00
4813;DHT22;2420;51.202;8.698;2023-10-08T10:00:02;11.50;1.00
4813;DHT22;2420;51.202;8.698;2023-10-08T10:02:30;11.60;1.00
4813;DHT22;2420;51.202;8.698;2023-10-08T10:04:58;11.60;1.00
4813;DHT22;2420;51.202;8.698;2023-10-08T10:07:26;11.60;1.00
4813;DHT22;2420;51.202;8.698;2023-10-08T10:09:54;11.60;1.00
4813;DHT22;2420;51.202;8.698;2023-10-08T10:12:25;11.70;1.00
4813;DHT22;2420;51.202;8.698;2023-10-08T10:14:53;11.70;1.00
4813;DHT22;2420;51.202;8.698;2023-10-08T10:17:25;11.60;1.00
4813;DHT22;2420;51.202;8.698;2023-10-08T10:20:01;11.50;1.00
4813;DHT22;2420;51.202;8.698;2023-10-08T10:22:31;11.50;1.00
4813;DHT22;2420;51.202;8.698;2023-10-08T10:25:02;11.60;1.00
4813;DHT22;2420;51.202;8.698;2023-10-08T10:30:21;11.90;1.00
4813;DHT22;2420;51.202;8.698;2023-10-08T10:32:51;11.80;1.00
4813;DHT22;2420;51.202;8.698;2023-10-08T10:35:17;11.80;1.00
4813;DHT22;2420;51.202;8.698;2023-10-08T10:37:44;11.90;1.00
4813;DHT22;2420;51.202;8.698;2023-10-08T10:40:22;12.00;1.00
4813;DHT22;2420;51.202;8.698;2023-10-08T10:42:56;11.90;1.00
4813;DHT22;2420;51.202;8.698;2023-10-08T10:45:22;11.90;1.00
4813;DHT22;2420;51.202;8.698;2023-10-08T10:48:08;12.00;1.00
4813;DHT22;2420;51.202;8.698;2023-10-08T10:50:57;12.10;1.00
4813;DHT22;2420;51.202;8.698;2023-10-08T10:53:36;12.20;1.00
4813;DHT22;2420;51.202;8.698;2023-10-08T10:56:12;12.30;1.00
4813;DHT22;2420;51.202;8.698;2023-10-08T10:58:46;12.30;1.00
4813;DHT22;2420;51.202;8.698;2023-10-08T11:01:12;12.30;1.00
4813;DHT22;2420;51.202;8.698;2023-10-08T11:03:50;12.20;1.00
4813;DHT22;2420;51.202;8.698;2023-10-08T11:06:18;12.20;1.00
4813;DHT22;2420;51.202;8.698;2023-10-08T11:08:50;12.30;1.00
4813;DHT22;2420;51.202;8.698;2023-10-08T11:11:25;12.30;1.00
4813;DHT22;2420;51.202;8.698;2023-10-08T11:13:56;12.40;1.00
4813;DHT22;2420;51.202;8.698;2023-10-08T11:16:25;12.50;1.00
4813;DHT22;2420;51.202;8.698;2023-10-08T11:18:52;12.50;1.00
4813;DHT22;2420;51.202;8.698;2023-10-08T11:21:23;12.30;1.00
4813;DHT22;2420;51.202;8.698;2023-10-08T11:23:50;12.40;1.00
4813;DHT22;2420;51.202;8.698;2023-10-08T11:26:22;12.40;1.00
4813;DHT22;2420;51.202;8.698;2023-10-08T11:28:58;12.20;1.00
4813;DHT22;2420;51.202;8.698;2023-10-08T11:31:26;12.10;1.00
4813;DHT22;2420;51.202;8.698;2023-10-08T11:33:58;11.90;1.00
4813;DHT22;2420;51.202;8.698;2023-10-08T11:36:24;11.90;1.00
4813;DHT22;2420;51.202;8.698;2023-10-08T11:39:10;11.90;1.00
4813;DHT22;2420;51.202;8.698;2023-10-08T11:41:37;12.00;1.00
4813;DHT22;2420;51.202;8.698;2023-10-08T11:44:18;12.20;1.00
4813;DHT22;2420;51.202;8.698;2023-10-08T11:46:49;12.10;1.00
4813;DHT22;2420;51.202;8.698;2023-10-08T11:49:18;12.10;1.00
4813;DHT22;2420;51.202;8.698;2023-10-08T11:51:45;12.20;1.00
4813;DHT22;2420;51.202;8.698;2023-10-08T11:54:11;12.20;1.00
4813;DHT22;2420;51.202;8.698;2023-10-08T11:56:40;12.00;1.00
4813;DHT22;2420;51.202;8.698;2023-10-08T11:59:06;12.00;1.00
4813;DHT22;2420;51.202;8.698;2023-10-08T12:01:37;12.10;1.00
4813;DHT22;2420;51.202;8.698;2023-10-08T12:04:08;11.90;1.00
4813;DHT22;2420;51.202;8.698;2023-10-08T12:06:39;12.00;1.00
4813;DHT22;2420;51.202;8.698;2023-10-08T12:09:08;12.20;1.00
4813;DHT22;2420;51.202;8.698;2023-10-08T12:11:38;12.20;1.00
4813;DHT22;2420;51.202;8.698;2023-10-08T12:14:05;12.20;1.00
4813;DHT22;2420;51.202;8.698;2023-10-08T12:16:31;12.30;1.00
4813;DHT22;2420;51.202;8.698;2023-10-08T12:19:01;12.50;1.00
4813;DHT22;2420;51.202;8.698;2023-10-08T12:21:30;12.70;1.00
4813;DHT22;2420;51.202;8.698;2023-10-08T12:23:59;12.70;1.00
4813;DHT22;2420;51.202;8.698;2023-10-08T12:26:30;12.70;1.00
4813;DHT22;2420;51.202;8.698;2023-10-08T12:28:56;12.70;1.00
4813;DHT22;2420;51.202;8.698;2023-10-08T12:31:23;12.80;1.00
4813;DHT22;2420;51.202;8.698;2023-10-08T12:33:50;12.90;1.00
4813;DHT22;2420;51.202;8.698;2023-10-08T12:36:26;13.10;1.00
4813;DHT22;2420;51.202;8.698;2023-10-08T12:38:58;13.00;1.00
4813;DHT22;2420;51.202;8.698;2023-10-08T12:41:25;12.70;1.00
4813;DHT22;2420;51.202;8.698;2023-10-08T12:43:52;12.80;1.00
4813;DHT22;2420;51.202;8.698;2023-10-08T12:46:19;12.60;1.00
4813;DHT22;2420;51.202;8.698;2023-10-08T12:48:49;12.60;1.00
4813;DHT22;2420;51.202;8.698;2023-10-08T12:51:20;12.50;1.00
4813;DHT22;2420;51.202;8.698;2023-10-08T12:53:49;12.70;1.00
4813;DHT22;2420;51.202;8.698;2023-10-08T12:56:25;12.80;1.00
4813;DHT22;2420;51.202;8.698;2023-10-08T12:59:00;12.70;1.00
4813;DHT22;2420;51.202;8.698;2023-10-08T13:01:29;12.60;1.00
4813;DHT22;2420;51.202;8.698;2023-10-08T13:03:55;12.60;1.00
4813;DHT22;2420;51.202;8.698;2023-10-08T13:06:27;12.70;1.00
4813;DHT22;2420;51.202;8.698;2023-10-08T13:08:57;12.80;1.00
4813;DHT22;2420;51.202;8.698;2023-10-08T13:11:24;12.90;1.00
4813;DHT22;2420;51.202;8.698;2023-10-08T13:13:51;12.90;1.00
4813;DHT22;2420;51.202;8.698;2023-10-08T13:16:17;13.00;1.00
4813;DHT22;2420;51.202;8.698;2023-10-08T13:18:43;12.90;1.00
4813;DHT22;2420;51.202;8.698;2023-10-08T13:21:10;12.90;1.00
4813;DHT22;2420;51.202;8.698;2023-10-08T13:23:36;12.80;1.00
4813;DHT22;2420;51.202;8.698;2023-10-08T13:26:02;12.90;1.00
4813;DHT22;2420;51.202;8.698;2023-10-08T13:28:32;13.00;1.00
4813;DHT22;2420;51.202;8.698;2023-10-08T13:31:00;13.00;1.00
4813;DHT22;2420;51.202;8.698;2023-10-08T13:33:25;13.00;1.00
4813;DHT22;2420;51.202;8.698;2023-10-08T13:35:51;13.10;1.00
4813;DHT22;2420;51.202;8.698;2023-10-08T13:38:19;13.20;1.00
4813;DHT22;2420;51.202;8.698;2023-10-08T13:40:48;13.10;1.00
4813;DHT22;2420;51.202;8.698;2023-10-08T13:43:28;13.10;1.00
4813;DHT22;2420;51.202;8.698;2023-10-08T13:46:08;13.10;1.00
4813;DHT22;2420;51.202;8.698;2023-10-08T13:48:38;13.10;1.00
4813;DHT22;2420;51.202;8.698;2023-10-08T13:51:04;13.20;1.00
4813;DHT22;2420;51.202;8.698;2023-10-08T13:53:33;13.10;1.00
4813;DHT22;2420;51.202;8.698;2023-10-08T13:56:00;13.10;1.00
4813;DHT22;2420;51.202;8.698;2023-10-08T13:58:29;13.00;1.00
4813;DHT22;2420;51.202;8.698;2023-10-08T14:00:59;13.00;1.00
4813;DHT22;2420;51.202;8.698;2023-10-08T14:03:30;13.00;1.00
4813;DHT22;2420;51.202;8.698;2023-10-08T14:05:59;13.10;1.00
4813;DHT22;2420;51.202;8.698;2023-10-08T14:08:29;13.00;1.00
4813;DHT22;2420;51.202;8.698;2023-10-08T14:10:56;13.00;1.00
4813;DHT22;2420;51.202;8.698;2023-10-08T14:13:31;13.00;1.00
4813;DHT22;2420;51.202;8.698;2023-10-08T14:15:58;12.90;1.00
4813;DHT22;2420;51.202;8.698;2023-10-08T14:18:24;12.90;1.00
4813;DHT22;2420;51.202;8.698;2023-10-08T14:20:55;12.90;1.00
4813;DHT22;2420;51.202;8.698;2023-10-08T14:23:21;12.90;1.00
4813;DHT22;2420;51.202;8.698;2023-10-08T14:25:49;13.00;1.00
4813;DHT22;2420;51.202;8.698;2023-10-08T14:28:17;13.00;1.00
4813;DHT22;2420;51.202;8.698;2023-10-08T14:31:09;13.10;1.00
4813;DHT22;2420;51.202;8.698;2023-10-08T14:33:41;13.00;1.00
4813;DHT22;2420;51.202;8.698;2023-10-08T14:36:25;13.00;1.00
4813;DHT22;2420;51.202;8.698;2023-10-08T14:39:09;13.10;1.00
4813;DHT22;2420;51.202;8.698;2023-10-08T14:41:54;13.00;1.00
4813;DHT22;2420;51.202;8.698;2023-10-08T14:44:38;13.00;1.00
4813;DHT22;2420;51.202;8.698;2023-10-08T14:47:06;13.00;1.00
4813;DHT22;2420;51.202;8.698;2023-10-08T14:49:32;13.00;1.00
4813;DHT22;2420;51.202;8.698;2023-10-08T14:51:59;13.00;1.00
4813;DHT22;2420;51.202;8.698;2023-10-08T14:54:25;13.00;1.00
4813;DHT22;2420;51.202;8.698;2023-10-08T14:56:51;13.00;1.00
4813;DHT22;2420;51.202;8.698;2023-10-08T14:59:17;13.00;1.00
4813;DHT22;2420;51.202;8.698;2023-10-08T15:01:44;13.10;1.00
4813;DHT22;2420;51.202;8.698;2023-10-08T15:04:10;13.10;1.00
4813;DHT22;2420;51.202;8.698;2023-10-08T15:06:37;13.20;1.00
4813;DHT22;2420;51.202;8.698;2023-10-08T15:09:07;13.20;1.00
4813;DHT22;2420;51.202;8.698;2023-10-08T15:11:44;13.20;1.00
4813;DHT22;2420;51.202;8.698;2023-10-08T15:14:11;13.30;1.00
4813;DHT22;2420;51.202;8.698;2023-10-08T15:16:37;13.30;1.00
4813;DHT22;2420;51.202;8.698;2023-10-08T15:19:04;13.20;1.00
4813;DHT22;2420;51.202;8.698;2023-10-08T15:21:33;13.20;1.00
4813;DHT22;2420;51.202;8.698;2023-10-08T15:23:59;13.00;1.00
4813;DHT22;2420;51.202;8.698;2023-10-08T15:26:36;13.00;1.00
4813;DHT22;2420;51.202;8.698;2023-10-08T15:29:01;12.90;1.00
4813;DHT22;2420;51.202;8.698;2023-10-08T15:31:28;12.90;1.00
4813;DHT22;2420;51.202;8.698;2023-10-08T15:33:54;12.90;1.00
4813;DHT22;2420;51.202;8.698;2023-10-08T15:36:20;12.80;1.00
4813;DHT22;2420;51.202;8.698;2023-10-08T15:38:45;12.90;1.00
4813;DHT22;2420;51.202;8.698;2023-10-08T15:41:11;12.90;1.00
4813;DHT22;2420;51.202;8.698;2023-10-08T15:43:39;12.80;1.00
4813;DHT22;2420;51.202;8.698;2023-10-08T15:46:05;12.90;1.00
4813;DHT22;2420;51.202;8.698;2023-10-08T15:48:31;13.00;1.00
4813;DHT22;2420;51.202;8.698;2023-10-08T15:50:59;13.00;1.00
4813;DHT22;2420;51.202;8.698;2023-10-08T15:53:24;12.90;1.00
4813;DHT22;2420;51.202;8.698;2023-10-08T15:55:51;12.90;1.00
4813;DHT22;2420;51.202;8.698;2023-10-08T15:58:16;12.90;1.00
4813;DHT22;2420;51.202;8.698;2023-10-08T16:00:42;13.00;1.00
4813;DHT22;2420;51.202;8.698;2023-10-08T16:03:08;12.90;1.00
4813;DHT22;2420;51.202;8.698;2023-10-08T16:05:34;12.90;1.00
4813;DHT22;2420;51.202;8.698;2023-10-08T16:07:59;12.90;1.00
4813;DHT22;2420;51.202;8.698;2023-10-08T16:10:26;12.90;1.00
4813;DHT22;2420;51.202;8.698;2023-10-08T16:12:52;12.90;1.00
4813;DHT22;2420;51.202;8.698;2023-10-08T16:15:18;12.90;1.00
4813;DHT22;2420;51.202;8.698;2023-10-08T16:17:46;12.90;1.00
4813;DHT22;2420;51.202;8.698;2023-10-08T16:20:12;12.80;1.00
4813;DHT22;2420;51.202;8.698;2023-10-08T16:22:44;12.70;1.00
4813;DHT22;2420;51.202;8.698;2023-10-08T16:25:11;12.80;1.00
4813;DHT22;2420;51.202;8.698;2023-10-08T16:27:41;12.80;1.00
4813;DHT22;2420;51.202;8.698;2023-10-08T16:30:17;12.70;1.00
4813;DHT22;2420;51.202;8.698;2023-10-08T16:32:44;12.60;1.00
4813;DHT22;2420;51.202;8.698;2023-10-08T16:35:11;12.60;1.00
4813;DHT22;2420;51.202;8.698;2023-10-08T16:37:37;12.60;1.00
4813;DHT22;2420;51.202;8.698;2023-10-08T16:40:04;12.60;1.00
4813;DHT22;2420;51.202;8.698;2023-10-08T16:42:30;12.60;1.00
4813;DHT22;2420;51.202;8.698;2023-10-08T16:44:55;12.60;1.00
4813;DHT22;2420;51.202;8.698;2023-10-08T16:47:21;12.70;1.00